sensor_id;sensor_type;location;lat;lon;timestamp;pressure;altitude;pressure_sealevel;temperature;humidity
72961;BME280;61141;46.204;19.774;2023-05-03T00:00:02;100573.44;;;16.58;51.00
72961;BME280;61141;46.204;19.774;2023-05-03T00:03:10;100589.97;;;16.65;50.04
72961;BME280;61141;46.204;19.774;2023-05-03T00:06:15;100589.97;;;16.65;49.27
72961;BME280;61141;46.204;19.774;2023-05-03T00:09:18;100585.66;;;16.68;48.70
72961;BME280;61141;46.204;19.774;2023-05-03T00:12:22;100590.69;;;16.76;49.01
72961;BME280;61141;46.204;19.774;2023-05-03T00:15:25;100585.22;;;16.73;51.08
72961;BME280;61141;46.204;19.774;2023-05-03T00:18:28;100584.00;;;16.74;49.04
72961;BME280;61141;46.204;19.774;2023-05-03T00:21:32;100578.88;;;16.72;51.11
72961;BME280;61141;46.204;19.774;2023-05-03T00:24:35;100573.00;;;16.63;49.15
72961;BME280;61141;46.204;19.774;2023-05-03T00:27:38;100574.22;;;16.59;48.18
72961;BME280;61141;46.204;19.774;2023-05-03T00:30:42;100577.41;;;16.50;48.42
72961;BME280;61141;46.204;19.774;2023-05-03T00:33:46;100583.75;;;16.43;49.50
72961;BME280;61141;46.204;19.774;2023-05-03T00:36:49;100579.06;;;16.37;50.11
72961;BME280;61141;46.204;19.774;2023-05-03T00:39:53;100575.16;;;16.24;50.43
72961;BME280;61141;46.204;19.774;2023-05-03T00:42:56;100587.72;;;16.39;49.15
72961;BME280;61141;46.204;19.774;2023-05-03T00:46:00;100583.47;;;16.20;49.86
72961;BME280;61141;46.204;19.774;2023-05-03T00:49:18;100583.09;;;16.15;50.26
72961;BME280;61141;46.204;19.774;2023-05-03T00:52:22;100581.56;;;16.07;49.76
72961;BME280;61141;46.204;19.774;2023-05-03T00:55:28;100598.91;;;16.11;49.66
72961;BME280;61141;46.204;19.774;2023-05-03T00:58:32;100596.13;;;16.14;50.05
72961;BME280;61141;46.204;19.774;2023-05-03T01:01:38;100576.06;;;15.93;48.78
72961;BME280;61141;46.204;19.774;2023-05-03T01:04:41;100594.16;;;16.08;50.88
72961;BME280;61141;46.204;19.774;2023-05-03T01:15:49;100602.87;;;16.03;51.10
72961;BME280;61141;46.204;19.774;2023-05-03T01:18:50;100587.06;;;16.10;50.00
72961;BME280;61141;46.204;19.774;2023-05-03T01:22:09;100585.50;;;16.06;49.83
72961;BME280;61141;46.204;19.774;2023-05-03T01:25:14;100590.66;;;16.00;50.09
72961;BME280;61141;46.204;19.774;2023-05-03T01:28:17;100583.59;;;15.78;50.73
72961;BME280;61141;46.204;19.774;2023-05-03T01:31:22;100595.00;;;16.01;50.68
72961;BME280;61141;46.204;19.774;2023-05-03T01:34:31;100596.59;;;15.99;50.52
72961;BME280;61141;46.204;19.774;2023-05-03T01:37:36;100590.22;;;16.09;49.23
72961;BME280;61141;46.204;19.774;2023-05-03T01:40:43;100593.41;;;15.97;51.05
72961;BME280;61141;46.204;19.774;2023-05-03T01:43:47;100593.44;;;15.86;50.16
72961;BME280;61141;46.204;19.774;2023-05-03T01:46:51;100582.41;;;15.82;51.60
72961;BME280;61141;46.204;19.774;2023-05-03T01:49:54;100594.28;;;15.72;52.21
72961;BME280;61141;46.204;19.774;2023-05-03T01:52:57;100596.66;;;15.74;52.37
72961;BME280;61141;46.204;19.774;2023-05-03T01:56:00;100588.38;;;15.63;53.24
72961;BME280;61141;46.204;19.774;2023-05-03T01:59:03;100593.53;;;15.54;54.13
72961;BME280;61141;46.204;19.774;2023-05-03T02:02:06;100605.34;;;15.62;53.95
72961;BME280;61141;46.204;19.774;2023-05-03T02:05:11;100588.41;;;15.49;54.65
72961;BME280;61141;46.204;19.774;2023-05-03T02:08:14;100604.56;;;15.29;55.85
72961;BME280;61141;46.204;19.774;2023-05-03T02:11:18;100599.03;;;15.33;56.13
72961;BME280;61141;46.204;19.774;2023-05-03T02:14:21;100600.22;;;15.18;56.80
72961;BME280;61141;46.204;19.774;2023-05-03T02:17:24;100594.31;;;15.02;57.51
72961;BME280;61141;46.204;19.774;2023-05-03T02:20:28;100599.41;;;15.14;57.20
72961;BME280;61141;46.204;19.774;2023-05-03T02:23:37;100601.00;;;15.01;57.71
72961;BME280;61141;46.204;19.774;2023-05-03T02:26:40;100599.03;;;15.15;57.58
72961;BME280;61141;46.204;19.774;2023-05-03T02:29:44;100594.31;;;15.16;57.67
72961;BME280;61141;46.204;19.774;2023-05-03T02:32:48;100599.03;;;15.12;57.68
72961;BME280;61141;46.204;19.774;2023-05-03T02:35:51;100597.47;;;15.07;58.32
72961;BME280;61141;46.204;19.774;2023-05-03T02:38:56;100598.62;;;15.10;58.10
72961;BME280;61141;46.204;19.774;2023-05-03T02:42:00;100601.78;;;15.08;58.67
72961;BME280;61141;46.204;19.774;2023-05-03T02:45:04;100599.03;;;15.01;58.92
72961;BME280;61141;46.204;19.774;2023-05-03T02:48:07;100611.66;;;15.09;58.88
72961;BME280;61141;46.204;19.774;2023-05-03T02:51:11;100599.03;;;15.08;58.91
72961;BME280;61141;46.204;19.774;2023-05-03T02:54:14;100607.72;;;15.10;58.80
72961;BME280;61141;46.204;19.774;2023-05-03T02:57:18;100614.78;;;15.04;58.37
72961;BME280;61141;46.204;19.774;2023-05-03T03:00:21;100617.16;;;15.06;60.95
72961;BME280;61141;46.204;19.774;2023-05-03T03:03:24;100615.19;;;14.99;61.56
72961;BME280;61141;46.204;19.774;2023-05-03T03:06:28;100618.72;;;15.00;61.26
72961;BME280;61141;46.204;19.774;2023-05-03T03:09:31;100619.50;;;14.97;61.28
72961;BME280;61141;46.204;19.774;2023-05-03T03:12:36;100614.75;;;14.87;60.86
72961;BME280;61141;46.204;19.774;2023-05-03T03:15:39;100617.13;;;14.85;60.84
72961;BME280;61141;46.204;19.774;2023-05-03T03:18:42;100619.47;;;14.68;61.13
72961;BME280;61141;46.204;19.774;2023-05-03T03:21:45;100616.25;;;14.52;61.80
72961;BME280;61141;46.204;19.774;2023-05-03T03:24:48;100623.37;;;14.60;61.95
72961;BME280;61141;46.204;19.774;2023-05-03T03:27:51;100624.56;;;14.66;61.70
72961;BME280;61141;46.204;19.774;2023-05-03T03:30:54;100617.06;;;14.67;62.29
72961;BME280;61141;46.204;19.774;2023-05-03T03:33:57;100616.28;;;14.66;62.04
72961;BME280;61141;46.204;19.774;2023-05-03T03:37:01;100636.03;;;14.79;62.59
72961;BME280;61141;46.204;19.774;2023-05-03T03:40:05;100629.72;;;14.72;63.64
72961;BME280;61141;46.204;19.774;2023-05-03T03:43:10;100637.97;;;14.68;62.44
72961;BME280;61141;46.204;19.774;2023-05-03T03:46:14;100641.50;;;14.72;61.93
72961;BME280;61141;46.204;19.774;2023-05-03T03:49:17;100641.53;;;14.76;64.64
72961;BME280;61141;46.204;19.774;2023-05-03T03:52:20;100639.53;;;14.65;64.14
72961;BME280;61141;46.204;19.774;2023-05-03T03:55:24;100650.59;;;14.76;63.85
72961;BME280;61141;46.204;19.774;2023-05-03T03:58:27;100645.47;;;14.71;63.19
72961;BME280;61141;46.204;19.774;2023-05-03T04:01:31;100654.94;;;14.77;61.82
72961;BME280;61141;46.204;19.774;2023-05-03T04:04:34;100660.47;;;14.88;61.90
72961;BME280;61141;46.204;19.774;2023-05-03T04:07:37;100663.63;;;14.97;61.62
72961;BME280;61141;46.204;19.774;2023-05-03T04:10:42;100653.00;;;14.88;64.43
72961;BME280;61141;46.204;19.774;2023-05-03T04:13:45;100666.78;;;14.88;62.20
72961;BME280;61141;46.204;19.774;2023-05-03T04:16:48;100672.69;;;14.87;61.44
72961;BME280;61141;46.204;19.774;2023-05-03T04:19:51;100668.38;;;14.86;61.16
72961;BME280;61141;46.204;19.774;2023-05-03T04:22:54;100670.72;;;14.87;61.20
72961;BME280;61141;46.204;19.774;2023-05-03T04:25:57;100670.75;;;14.98;61.96
72961;BME280;61141;46.204;19.774;2023-05-03T04:29:01;100680.22;;;15.00;65.25
72961;BME280;61141;46.204;19.774;2023-05-03T04:32:05;100658.50;;;14.92;65.17
72961;BME280;61141;46.204;19.774;2023-05-03T04:35:10;100658.88;;;14.83;62.47
72961;BME280;61141;46.204;19.774;2023-05-03T04:38:14;100670.75;;;15.01;61.39
72961;BME280;61141;46.204;19.774;2023-05-03T04:41:18;100661.28;;;15.02;61.55
72961;BME280;61141;46.204;19.774;2023-05-03T04:44:31;100675.09;;;15.06;60.90
72961;BME280;61141;46.204;19.774;2023-05-03T04:47:34;100680.25;;;15.07;60.99
72961;BME280;61141;46.204;19.774;2023-05-03T04:50:38;100682.62;;;15.16;60.68
72961;BME280;61141;46.204;19.774;2023-05-03T04:53:41;100678.69;;;15.31;59.10
72961;BME280;61141;46.204;19.774;2023-05-03T04:56:44;100692.09;;;15.40;59.83
72961;BME280;61141;46.204;19.774;2023-05-03T04:59:48;100691.34;;;15.46;58.55
72961;BME280;61141;46.204;19.774;2023-05-03T05:02:52;100692.94;;;15.54;58.89
72961;BME280;61141;46.204;19.774;2023-05-03T05:05:56;100692.91;;;15.58;58.12
72961;BME280;61141;46.204;19.774;2023-05-03T05:08:59;100692.13;;;15.61;58.75
72961;BME280;61141;46.204;19.774;2023-05-03T05:12:02;100696.09;;;15.67;58.58
72961;BME280;61141;46.204;19.774;2023-05-03T05:15:07;100699.25;;;15.76;59.35
72961;BME280;61141;46.204;19.774;2023-05-03T05:18:14;100700.03;;;15.83;59.28
72961;BME280;61141;46.204;19.774;2023-05-03T05:21:18;100705.56;;;15.91;58.29
72961;BME280;61141;46.204;19.774;2023-05-03T05:24:22;100699.62;;;15.92;60.61
72961;BME280;61141;46.204;19.774;2023-05-03T05:27:25;100709.47;;;16.04;57.88
72961;BME280;61141;46.204;19.774;2023-05-03T05:30:29;100707.87;;;16.13;56.04
72961;BME280;61141;46.204;19.774;2023-05-03T05:33:33;100709.81;;;16.27;56.98
72961;BME280;61141;46.204;19.774;2023-05-03T05:36:37;100697.16;;;16.29;55.99
72961;BME280;61141;46.204;19.774;2023-05-03T05:39:42;100710.16;;;16.46;55.36
72961;BME280;61141;46.204;19.774;2023-05-03T05:42:45;100716.09;;;16.45;54.49
72961;BME280;61141;46.204;19.774;2023-05-03T05:45:50;100717.28;;;16.44;54.08
72961;BME280;61141;46.204;19.774;2023-05-03T05:48:54;100714.94;;;16.39;54.88
72961;BME280;61141;46.204;19.774;2023-05-03T05:51:58;100716.53;;;16.36;54.65
72961;BME280;61141;46.204;19.774;2023-05-03T05:55:01;100719.66;;;16.38;55.09
72961;BME280;61141;46.204;19.774;2023-05-03T05:58:04;100724.84;;;16.26;54.95
72961;BME280;61141;46.204;19.774;2023-05-03T06:01:07;100728.41;;;16.26;55.20
72961;BME280;61141;46.204;19.774;2023-05-03T06:04:12;100718.09;;;16.27;55.50
72961;BME280;61141;46.204;19.774;2023-05-03T06:07:15;100714.97;;;16.25;55.33
72961;BME280;61141;46.204;19.774;2023-05-03T06:10:18;100716.09;;;16.38;54.86
72961;BME280;61141;46.204;19.774;2023-05-03T06:13:22;100711.00;;;16.40;54.73
72961;BME280;61141;46.204;19.774;2023-05-03T06:16:26;100705.84;;;16.42;54.83
72961;BME280;61141;46.204;19.774;2023-05-03T06:19:28;100718.81;;;16.63;54.58
72961;BME280;61141;46.204;19.774;2023-05-03T06:22:32;100721.63;;;16.56;54.64
72961;BME280;61141;46.204;19.774;2023-05-03T06:25:35;100717.22;;;16.72;54.62
72961;BME280;61141;46.204;19.774;2023-05-03T06:28:39;100716.72;;;16.91;54.13
72961;BME280;61141;46.204;19.774;2023-05-03T06:31:42;100709.94;;;17.07;53.37
72961;BME280;61141;46.204;19.774;2023-05-03T06:34:47;100709.91;;;17.10;53.13
72961;BME280;61141;46.204;19.774;2023-05-03T06:37:50;100727.84;;;17.50;52.40
72961;BME280;61141;46.204;19.774;2023-05-03T06:40:54;100726.66;;;17.54;52.28
72961;BME280;61141;46.204;19.774;2023-05-03T06:43:58;100723.09;;;17.54;51.24
72961;BME280;61141;46.204;19.774;2023-05-03T06:47:01;100725.31;;;17.73;51.17
72961;BME280;61141;46.204;19.774;2023-05-03T06:50:04;100724.25;;;18.04;50.34
72961;BME280;61141;46.204;19.774;2023-05-03T06:53:08;100729.22;;;18.24;50.48
72961;BME280;61141;46.204;19.774;2023-05-03T06:56:11;100730.72;;;18.32;49.70
72961;BME280;61141;46.204;19.774;2023-05-03T06:59:15;100735.22;;;18.56;48.80
72961;BME280;61141;46.204;19.774;2023-05-03T07:02:18;100723.91;;;18.77;47.70
72961;BME280;61141;46.204;19.774;2023-05-03T07:05:23;100709.13;;;18.84;47.76
72961;BME280;61141;46.204;19.774;2023-05-03T07:08:26;100713.38;;;19.22;46.87
72961;BME280;61141;46.204;19.774;2023-05-03T07:11:29;100714.59;;;19.48;45.93
72961;BME280;61141;46.204;19.774;2023-05-03T07:14:32;100709.44;;;19.73;45.30
72961;BME280;61141;46.204;19.774;2023-05-03T07:17:36;100711.91;;;19.90;45.15
72961;BME280;61141;46.204;19.774;2023-05-03T07:20:39;100710.72;;;20.11;45.12
72961;BME280;61141;46.204;19.774;2023-05-03T07:23:42;100712.06;;;20.03;43.63
72961;BME280;61141;46.204;19.774;2023-05-03T07:26:45;100710.19;;;20.20;43.64
72961;BME280;61141;46.204;19.774;2023-05-03T07:29:51;100719.09;;;20.34;43.18
72961;BME280;61141;46.204;19.774;2023-05-03T07:32:54;100717.22;;;20.28;43.72
72961;BME280;61141;46.204;19.774;2023-05-03T07:35:57;100716.16;;;20.41;43.96
72961;BME280;61141;46.204;19.774;2023-05-03T07:39:00;100716.88;;;20.45;43.36
72961;BME280;61141;46.204;19.774;2023-05-03T07:42:03;100714.09;;;20.45;43.39
72961;BME280;61141;46.204;19.774;2023-05-03T07:45:07;100717.53;;;20.53;42.93
72961;BME280;61141;46.204;19.774;2023-05-03T07:48:10;100720.53;;;20.42;43.25
72961;BME280;61141;46.204;19.774;2023-05-03T07:51:13;100723.69;;;20.21;44.25
72961;BME280;61141;46.204;19.774;2023-05-03T07:54:17;100718.03;;;20.68;42.98
72961;BME280;61141;46.204;19.774;2023-05-03T07:57:20;100732.37;;;20.66;43.11
72961;BME280;61141;46.204;19.774;2023-05-03T08:00:25;100727.66;;;20.43;43.28
72961;BME280;61141;46.204;19.774;2023-05-03T08:03:29;100728.22;;;20.74;43.05
72961;BME280;61141;46.204;19.774;2023-05-03T08:06:32;100733.09;;;20.90;41.97
72961;BME280;61141;46.204;19.774;2023-05-03T08:09:38;100722.72;;;21.10;42.98
72961;BME280;61141;46.204;19.774;2023-05-03T08:12:42;100719.44;;;21.15;42.61
72961;BME280;61141;46.204;19.774;2023-05-03T08:15:45;100725.00;;;20.95;42.96
72961;BME280;61141;46.204;19.774;2023-05-03T08:18:48;100737.56;;;21.03;42.94
72961;BME280;61141;46.204;19.774;2023-05-03T08:21:51;100742.34;;;21.23;42.33
72961;BME280;61141;46.204;19.774;2023-05-03T08:24:56;100743.38;;;21.48;42.15
72961;BME280;61141;46.204;19.774;2023-05-03T08:27:59;100750.22;;;21.44;42.83
72961;BME280;61141;46.204;19.774;2023-05-03T08:31:01;100749.28;;;21.50;42.54
72961;BME280;61141;46.204;19.774;2023-05-03T08:34:09;100743.75;;;21.31;43.33
72961;BME280;61141;46.204;19.774;2023-05-03T08:37:13;100751.03;;;21.08;43.91
72961;BME280;61141;46.204;19.774;2023-05-03T08:40:16;100752.53;;;21.29;43.85
72961;BME280;61141;46.204;19.774;2023-05-03T08:43:19;100761.09;;;21.38;43.51
72961;BME280;61141;46.204;19.774;2023-05-03T08:46:24;100750.34;;;21.56;43.14
72961;BME280;61141;46.204;19.774;2023-05-03T08:49:28;100760.62;;;21.76;42.62
72961;BME280;61141;46.204;19.774;2023-05-03T08:52:33;100762.56;;;21.79;43.11
72961;BME280;61141;46.204;19.774;2023-05-03T08:55:37;100761.53;;;21.89;42.02
72961;BME280;61141;46.204;19.774;2023-05-03T08:58:41;100769.34;;;22.10;41.85
72961;BME280;61141;46.204;19.774;2023-05-03T09:01:44;100765.78;;;22.09;41.59
72961;BME280;61141;46.204;19.774;2023-05-03T09:04:47;100767.59;;;21.67;42.30
72961;BME280;61141;46.204;19.774;2023-05-03T09:11:19;100770.25;;;21.39;43.17
72961;BME280;61141;46.204;19.774;2023-05-03T09:14:22;100779.56;;;21.32;43.68
72961;BME280;61141;46.204;19.774;2023-05-03T09:17:25;100774.78;;;21.13;44.37
72961;BME280;61141;46.204;19.774;2023-05-03T09:20:39;100780.66;;;21.19;44.29
72961;BME280;61141;46.204;19.774;2023-05-03T09:23:42;100783.28;;;21.06;44.48
72961;BME280;61141;46.204;19.774;2023-05-03T09:26:50;100794.34;;;21.29;43.74
72961;BME280;61141;46.204;19.774;2023-05-03T09:29:54;100789.94;;;21.32;43.79
72961;BME280;61141;46.204;19.774;2023-05-03T09:32:56;100797.16;;;21.65;43.13
72961;BME280;61141;46.204;19.774;2023-05-03T09:36:02;100782.94;;;21.59;42.89
72961;BME280;61141;46.204;19.774;2023-05-03T09:39:15;100791.47;;;21.68;43.06
72961;BME280;61141;46.204;19.774;2023-05-03T09:42:19;100798.44;;;21.77;42.18
72961;BME280;61141;46.204;19.774;2023-05-03T09:45:23;100786.03;;;21.97;41.73
72961;BME280;61141;46.204;19.774;2023-05-03T09:48:26;100793.53;;;22.16;41.26
72961;BME280;61141;46.204;19.774;2023-05-03T09:51:30;100799.84;;;22.49;40.95
72961;BME280;61141;46.204;19.774;2023-05-03T09:54:37;100798.47;;;22.86;40.78
72961;BME280;61141;46.204;19.774;2023-05-03T09:57:41;100795.38;;;22.97;40.89
72961;BME280;61141;46.204;19.774;2023-05-03T10:00:45;100802.22;;;22.79;40.77
72961;BME280;61141;46.204;19.774;2023-05-03T10:03:56;100796.75;;;22.76;40.95
72961;BME280;61141;46.204;19.774;2023-05-03T10:07:07;100799.53;;;23.17;39.63
72961;BME280;61141;46.204;19.774;2023-05-03T10:10:18;100779.53;;;23.19;39.11
72961;BME280;61141;46.204;19.774;2023-05-03T10:13:23;100800.53;;;23.52;39.28
72961;BME280;61141;46.204;19.774;2023-05-03T10:16:37;100798.78;;;23.29;39.33
72961;BME280;61141;46.204;19.774;2023-05-03T10:19:49;100794.56;;;23.37;38.86
72961;BME280;61141;46.204;19.774;2023-05-03T10:23:09;100790.72;;;23.19;39.69
72961;BME280;61141;46.204;19.774;2023-05-03T10:26:13;100788.91;;;23.66;39.43
72961;BME280;61141;46.204;19.774;2023-05-03T10:32:48;100788.66;;;23.07;40.30
72961;BME280;61141;46.204;19.774;2023-05-03T10:35:52;100784.59;;;22.83;40.07
72961;BME280;61141;46.204;19.774;2023-05-03T10:38:55;100786.84;;;22.43;39.29
72961;BME280;61141;46.204;19.774;2023-05-03T10:42:02;100786.97;;;22.97;38.51
72961;BME280;61141;46.204;19.774;2023-05-03T10:45:19;100783.03;;;23.35;38.17
72961;BME280;61141;46.204;19.774;2023-05-03T10:48:22;100787.16;;;23.31;38.58
72961;BME280;61141;46.204;19.774;2023-05-03T10:51:29;100780.16;;;23.39;37.98
72961;BME280;61141;46.204;19.774;2023-05-03T10:54:34;100786.66;;;23.49;37.81
72961;BME280;61141;46.204;19.774;2023-05-03T10:57:39;100784.66;;;23.08;37.91
72961;BME280;61141;46.204;19.774;2023-05-03T11:00:44;100787.62;;;23.42;37.45
72961;BME280;61141;46.204;19.774;2023-05-03T11:03:59;100782.66;;;23.08;38.13
72961;BME280;61141;46.204;19.774;2023-05-03T11:07:04;100783.91;;;23.32;37.55
72961;BME280;61141;46.204;19.774;2023-05-03T11:10:17;100787.03;;;23.34;37.79
72961;BME280;61141;46.204;19.774;2023-05-03T11:13:20;100783.81;;;23.36;37.61
72961;BME280;61141;46.204;19.774;2023-05-03T11:16:24;100792.22;;;23.36;37.13
72961;BME280;61141;46.204;19.774;2023-05-03T11:19:27;100781.44;;;23.22;37.40
72961;BME280;61141;46.204;19.774;2023-05-03T11:22:31;100790.03;;;23.15;37.45
72961;BME280;61141;46.204;19.774;2023-05-03T11:25:34;100785.22;;;23.03;38.26
72961;BME280;61141;46.204;19.774;2023-05-03T11:28:41;100781.47;;;22.80;37.96
72961;BME280;61141;46.204;19.774;2023-05-03T11:31:44;100785.94;;;22.78;37.97
72961;BME280;61141;46.204;19.774;2023-05-03T11:34:47;100789.09;;;22.93;37.35
72961;BME280;61141;46.204;19.774;2023-05-03T11:37:50;100794.25;;;22.94;37.15
72961;BME280;61141;46.204;19.774;2023-05-03T11:40:54;100785.94;;;22.91;36.95
72961;BME280;61141;46.204;19.774;2023-05-03T11:43:57;100779.22;;;22.75;36.84
72961;BME280;61141;46.204;19.774;2023-05-03T11:47:17;100784.38;;;22.90;37.12
72961;BME280;61141;46.204;19.774;2023-05-03T11:50:43;100786.00;;;23.45;36.64
72961;BME280;61141;46.204;19.774;2023-05-03T11:53:49;100780.94;;;23.65;35.42
72961;BME280;61141;46.204;19.774;2023-05-03T11:56:57;100779.16;;;23.71;34.31
72961;BME280;61141;46.204;19.774;2023-05-03T12:00:12;100776.91;;;23.53;34.77
72961;BME280;61141;46.204;19.774;2023-05-03T12:03:26;100783.97;;;23.58;34.45
72961;BME280;61141;46.204;19.774;2023-05-03T12:06:33;100778.25;;;23.74;33.59
72961;BME280;61141;46.204;19.774;2023-05-03T12:09:39;100771.44;;;23.62;33.31
72961;BME280;61141;46.204;19.774;2023-05-03T12:12:54;100772.53;;;23.65;33.60
72961;BME280;61141;46.204;19.774;2023-05-03T12:16:03;100778.25;;;23.61;33.49
72961;BME280;61141;46.204;19.774;2023-05-03T12:19:28;100762.22;;;23.87;33.14
72961;BME280;61141;46.204;19.774;2023-05-03T12:22:36;100772.56;;;23.77;31.92
72961;BME280;61141;46.204;19.774;2023-05-03T12:25:39;100758.87;;;23.67;31.83
72961;BME280;61141;46.204;19.774;2023-05-03T12:28:47;100761.78;;;23.76;32.13
72961;BME280;61141;46.204;19.774;2023-05-03T12:31:51;100763.59;;;23.70;32.08
72961;BME280;61141;46.204;19.774;2023-05-03T12:34:54;100759.31;;;23.90;30.42
72961;BME280;61141;46.204;19.774;2023-05-03T12:37:58;100750.38;;;23.70;31.34
72961;BME280;61141;46.204;19.774;2023-05-03T12:41:04;100752.47;;;23.28;30.91
72961;BME280;61141;46.204;19.774;2023-05-03T12:44:10;100749.84;;;23.50;31.18
72961;BME280;61141;46.204;19.774;2023-05-03T12:47:17;100748.41;;;23.58;30.05
72961;BME280;61141;46.204;19.774;2023-05-03T12:50:31;100743.56;;;23.71;30.59
72961;BME280;61141;46.204;19.774;2023-05-03T12:53:40;100739.38;;;24.01;29.72
72961;BME280;61141;46.204;19.774;2023-05-03T12:56:48;100731.47;;;23.74;28.58
72961;BME280;61141;46.204;19.774;2023-05-03T12:59:56;100720.31;;;24.09;29.01
72961;BME280;61141;46.204;19.774;2023-05-03T13:03:05;100720.22;;;24.12;29.48
72961;BME280;61141;46.204;19.774;2023-05-03T13:06:11;100708.25;;;24.33;29.81
72961;BME280;61141;46.204;19.774;2023-05-03T13:09:17;100704.84;;;24.17;29.76
72961;BME280;61141;46.204;19.774;2023-05-03T13:12:28;100705.75;;;24.14;29.28
72961;BME280;61141;46.204;19.774;2023-05-03T13:15:35;100697.28;;;23.92;29.85
72961;BME280;61141;46.204;19.774;2023-05-03T13:18:39;100700.34;;;24.19;29.85
72961;BME280;61141;46.204;19.774;2023-05-03T13:21:46;100691.00;;;24.35;30.16
72961;BME280;61141;46.204;19.774;2023-05-03T13:24:49;100690.34;;;24.52;29.50
72961;BME280;61141;46.204;19.774;2023-05-03T13:27:52;100676.41;;;24.62;28.79
72961;BME280;61141;46.204;19.774;2023-05-03T13:30:58;100688.91;;;24.70;28.77
72961;BME280;61141;46.204;19.774;2023-05-03T13:34:01;100683.84;;;24.34;28.32
72961;BME280;61141;46.204;19.774;2023-05-03T13:37:04;100682.13;;;24.15;28.95
72961;BME280;61141;46.204;19.774;2023-05-03T13:40:07;100686.16;;;24.14;29.89
72961;BME280;61141;46.204;19.774;2023-05-03T13:43:12;100680.50;;;23.92;28.86
72961;BME280;61141;46.204;19.774;2023-05-03T13:46:14;100674.53;;;24.03;29.47
72961;BME280;61141;46.204;19.774;2023-05-03T13:49:18;100686.62;;;24.12;29.08
72961;BME280;61141;46.204;19.774;2023-05-03T13:52:21;100685.66;;;24.28;29.06
72961;BME280;61141;46.204;19.774;2023-05-03T13:55:24;100684.03;;;24.18;29.43
72961;BME280;61141;46.204;19.774;2023-05-03T13:58:30;100678.00;;;23.60;28.82
72961;BME280;61141;46.204;19.774;2023-05-03T14:01:33;100675.25;;;23.81;29.48
72961;BME280;61141;46.204;19.774;2023-05-03T14:04:38;100677.91;;;24.32;29.86
72961;BME280;61141;46.204;19.774;2023-05-03T14:07:40;100676.91;;;24.69;29.33
72961;BME280;61141;46.204;19.774;2023-05-03T14:10:44;100684.50;;;24.81;28.95
72961;BME280;61141;46.204;19.774;2023-05-03T14:13:49;100673.47;;;24.87;28.77
72961;BME280;61141;46.204;19.774;2023-05-03T14:16:59;100679.94;;;24.53;29.48
72961;BME280;61141;46.204;19.774;2023-05-03T14:20:02;100675.75;;;24.36;30.36
72961;BME280;61141;46.204;19.774;2023-05-03T14:23:15;100667.53;;;24.20;30.61
72961;BME280;61141;46.204;19.774;2023-05-03T14:26:21;100676.56;;;24.02;30.73
72961;BME280;61141;46.204;19.774;2023-05-03T14:29:26;100666.97;;;23.78;30.70
72961;BME280;61141;46.204;19.774;2023-05-03T14:32:29;100666.97;;;23.78;30.98
72961;BME280;61141;46.204;19.774;2023-05-03T14:35:33;100668.25;;;23.64;31.68
72961;BME280;61141;46.204;19.774;2023-05-03T14:38:36;100668.81;;;23.72;31.24
72961;BME280;61141;46.204;19.774;2023-05-03T14:41:39;100659.09;;;23.51;31.18
72961;BME280;61141;46.204;19.774;2023-05-03T14:44:46;100656.19;;;23.55;31.38
72961;BME280;61141;46.204;19.774;2023-05-03T14:47:49;100661.09;;;23.63;31.22
72961;BME280;61141;46.204;19.774;2023-05-03T14:50:54;100669.28;;;23.45;31.65
72961;BME280;61141;46.204;19.774;2023-05-03T14:53:58;100656.19;;;23.42;31.65
72961;BME280;61141;46.204;19.774;2023-05-03T14:57:02;100660.69;;;23.39;31.87
72961;BME280;61141;46.204;19.774;2023-05-03T15:00:06;100662.31;;;23.62;31.79
72961;BME280;61141;46.204;19.774;2023-05-03T15:03:15;100658.53;;;23.56;32.17
72961;BME280;61141;46.204;19.774;2023-05-03T15:06:26;100660.56;;;23.43;31.38
72961;BME280;61141;46.204;19.774;2023-05-03T15:09:30;100656.28;;;23.26;32.23
72961;BME280;61141;46.204;19.774;2023-05-03T15:12:33;100657.34;;;23.45;31.88
72961;BME280;61141;46.204;19.774;2023-05-03T15:15:38;100659.91;;;23.39;31.64
72961;BME280;61141;46.204;19.774;2023-05-03T15:18:42;100661.56;;;23.24;32.20
72961;BME280;61141;46.204;19.774;2023-05-03T15:21:50;100656.88;;;23.21;32.21
72961;BME280;61141;46.204;19.774;2023-05-03T15:24:53;100656.75;;;23.12;32.39
72961;BME280;61141;46.204;19.774;2023-05-03T15:27:56;100660.44;;;22.96;32.56
72961;BME280;61141;46.204;19.774;2023-05-03T15:31:05;100657.50;;;22.87;33.16
72961;BME280;61141;46.204;19.774;2023-05-03T15:34:08;100657.56;;;22.58;32.99
72961;BME280;61141;46.204;19.774;2023-05-03T15:37:14;100637.88;;;22.49;33.33
72961;BME280;61141;46.204;19.774;2023-05-03T15:40:17;100649.84;;;22.50;33.46
72961;BME280;61141;46.204;19.774;2023-05-03T15:43:22;100657.91;;;22.32;33.66
72961;BME280;61141;46.204;19.774;2023-05-03T15:46:25;100662.50;;;22.26;33.92
72961;BME280;61141;46.204;19.774;2023-05-03T15:49:28;100655.72;;;22.10;34.56
72961;BME280;61141;46.204;19.774;2023-05-03T15:52:32;100652.69;;;22.05;34.75
72961;BME280;61141;46.204;19.774;2023-05-03T15:55:36;100658.13;;;21.96;35.12
72961;BME280;61141;46.204;19.774;2023-05-03T15:58:43;100651.41;;;21.93;35.25
72961;BME280;61141;46.204;19.774;2023-05-03T16:01:46;100648.28;;;21.75;35.71
72961;BME280;61141;46.204;19.774;2023-05-03T16:04:50;100643.03;;;21.77;36.07
72961;BME280;61141;46.204;19.774;2023-05-03T16:07:56;100646.09;;;21.83;36.32